Fairhaven, MA

7:17 PM EST on January 27, 2015 (GMT -0500)
Holcomb Street | Change Station
CLOSE
Current Station
Personal Weather Station
Location: Fairhaven, MA
Elevation: 30 ft
Nearby Weather Stations

Elev 30 ft 41.64 °N, 70.90 °W | Updated 7 minutes ago

Snow
Snow
17.6 °F
Feels Like 10 °F
N
5.0
Wind Variable Wind from North
Gusts 5.0 mph

Today
High -- | Low -- °F
--% Chance of Precip.
Yesterday
High -- | Low -- °F
Precip. -- in
7:00 AM 4:52 PM
First Quarter, 59% visible
Pressure 29.52 in
Visibility 1.0 miles
Clouds
Windchill 10 °F
Dew Point 16 °F
Humidity 93%
Rainfall 0.00 in
Snow Depth Not available.
UV Not available.
Pollen .10 out of 12
Air Quality Not available.
Flu Activity Not available.
METAR KEWB 272353Z AUTO 31010G20KT 1SM R05/5000VP6000FT -SN BR VV016 M08/M10 A2952 RMK AO2 SLP997 P0000 60000 T10781100 11072 21083 51029 $

More Conditions Fewer Conditions

Pressure 29.52 in
Visibility 1.0 miles
Clouds
Windchill 10 °F
Dew Point 16 °F
Humidity 93%
Rainfall 0.00 in
Snow Depth Not available.
UV Not available.
Pollen .10 out of 12
Air Quality Not available.
Flu Activity Not available.
METAR KEWB 272353Z AUTO 31010G20KT 1SM R05/5000VP6000FT -SN BR VV016 M08/M10 A2952 RMK AO2 SLP997 P0000 60000 T10781100 11072 21083 51029 $

More Conditions Fewer Conditions

10-Day Weather Forecast

Almanac

Astronomy

Jan. 27, 2015 Rise Set
Actual Time
Civil Twilight
Nautical Twilight
Astronomical Twilight
Moon
Length of Visible Light
Length of Day
Tomorrow will be .
, % of the Moon is Illuminated

Today's Extremes

State Highs State Lows

Community

WunderPhotos

Upload Photos

1,790,990 photos uploaded!

WunderBlogs® & News

Nearby

Air Quality

  Air Quality AQ Index Pollutant
Not available.

Snow Depth

Station Depth Elevation

Earthquake Activity

City Distance Mag. Time & Date
Minimum magnitude displayed is 2.5.

Coastal Water Temperatures

Place Temperature

Nearby Weather Stations